Terminal Aerodrome Forecast
Issued by NWS

Home | Current Version | Previous Version | Text Only | Print | Product List | Glossary On
Versions: 1 2 3 4 5 6 7 8 9 10 11 12
129
FTUS42 KMLB 071131
TAFTIX
TAF
KTIX 071131Z 0712/0812 29005KT P6SM SCT010
     FM071400 31007KT P6SM FEW020 SCT250
     FM072100 05006KT P6SM SCT250
     FM080000 VRB03KT P6SM FEW250=

USA.gov is the U.S. government's official web portal to all federal, state and local government web resources and services.